Time;durP1;ratioP1;P1;durP2;ratioP2;P2;SDS_P1;SDS_P2;PMS_P1;PMS_P2;Temp;Humidity;BMP_temperature;BMP_pressure;BME280_temperature;BME280_humidity;BME280_pressure;Samples;Min_cycle;Max_cycle;Signal;HPM_P1;HPM_P2
2021/05/18 00:01:11;;;;;;;0.88;0.70;;;9.00;85.10;;;;;;5061836;28;20146;-78
2021/05/18 00:03:37;;;;;;;0.90;0.63;;;9.10;85.10;;;;;;5093562;28;20063;-78
2021/05/18 00:06:04;;;;;;;0.82;0.50;;;9.10;85.20;;;;;;5095879;28;20084;-78
2021/05/18 00:08:33;;;;;;;0.50;0.47;;;9.10;85.20;;;;;;5078912;28;20040;-78
2021/05/18 00:13:53;;;;;;;0.60;0.40;;;9.10;85.10;;;;;;5099133;28;20039;-78
2021/05/18 00:16:20;;;;;;;1.27;0.68;;;9.10;85.20;;;;;;5063156;28;20035;-78
2021/05/18 00:18:45;;;;;;;0.45;0.45;;;9.00;85.10;;;;;;5063061;28;20092;-78
2021/05/18 00:21:11;;;;;;;0.55;0.50;;;9.00;85.20;;;;;;5114663;28;20039;-77
2021/05/18 00:23:37;;;;;;;1.00;0.60;;;8.90;85.20;;;;;;5114187;28;20032;-77
2021/05/18 00:26:04;;;;;;;0.88;0.70;;;9.00;85.30;;;;;;5095599;28;20047;-77
2021/05/18 00:28:31;;;;;;;0.45;0.38;;;9.00;85.40;;;;;;5097034;28;20047;-78
2021/05/18 00:30:57;;;;;;;0.40;0.40;;;8.90;85.40;;;;;;5097356;28;20489;-78
2021/05/18 00:33:23;;;;;;;1.05;0.55;;;8.90;85.50;;;;;;5079792;28;20039;-78
2021/05/18 00:35:50;;;;;;;0.57;0.43;;;8.90;85.60;;;;;;5078984;28;20134;-78
2021/05/18 00:38:17;;;;;;;1.38;0.60;;;9.00;85.60;;;;;;5095521;28;20047;-78
2021/05/18 00:40:44;;;;;;;0.70;0.60;;;8.80;85.60;;;;;;5095794;28;20095;-78
2021/05/18 00:43:11;;;;;;;0.43;0.40;;;8.80;85.60;;;;;;5114362;28;20484;-78
2021/05/18 00:45:46;;;;;;;0.70;0.55;;;8.80;85.60;;;;;;5096686;28;20516;-79
2021/05/18 00:48:12;;;;;;;0.98;0.47;;;8.80;85.60;;;;;;5080758;28;20400;-77
2021/05/18 00:50:41;;;;;;;0.30;0.30;;;8.80;85.60;;;;;;5113620;28;20385;-77
2021/05/18 00:53:07;;;;;;;0.30;0.30;;;8.80;85.70;;;;;;5078932;28;20485;-77
2021/05/18 01:00:55;;;;;;;0.77;0.55;;;8.80;85.60;;;;;;5092814;28;20063;-78
2021/05/18 01:03:21;;;;;;;0.85;0.63;;;8.80;85.60;;;;;;5074336;28;20486;-77
2021/05/18 01:08:33;;;;;;;0.95;0.70;;;8.80;85.60;;;;;;5094355;28;20048;-77
2021/05/18 01:10:59;;;;;;;0.70;0.50;;;9.00;85.70;;;;;;5095530;28;20520;-77
2021/05/18 01:13:26;;;;;;;0.40;0.40;;;8.80;85.60;;;;;;5076350;28;20486;-78
2021/05/18 01:15:52;;;;;;;0.80;0.60;;;8.90;85.60;;;;;;5059284;28;20036;-77
2021/05/18 01:18:18;;;;;;;0.32;0.32;;;8.80;85.60;;;;;;5076366;28;20059;-77
2021/05/18 01:20:55;;;;;;;0.50;0.50;;;8.90;85.50;;;;;;5058699;28;20079;-77
2021/05/18 01:23:21;;;;;;;0.60;0.40;;;8.90;85.50;;;;;;5077661;28;20166;-78
2021/05/18 01:25:47;;;;;;;1.20;0.70;;;8.90;85.50;;;;;;5078362;28;20047;-77
2021/05/18 01:28:13;;;;;;;0.88;0.60;;;8.90;85.40;;;;;;5078389;28;20048;-77
2021/05/18 01:30:39;;;;;;;1.17;0.68;;;9.00;85.40;;;;;;5077179;28;20052;-77
2021/05/18 01:33:05;;;;;;;0.85;0.55;;;9.00;85.40;;;;;;5061483;28;20040;-77
2021/05/18 01:35:31;;;;;;;0.43;0.40;;;9.00;85.30;;;;;;5059482;28;20395;-78
2021/05/18 01:37:57;;;;;;;1.23;0.60;;;9.20;85.40;;;;;;5077886;28;20132;-77
2021/05/18 01:42:58;;;;;;;0.60;0.50;;;9.20;85.40;;;;;;5097485;28;20059;-78
2021/05/18 01:45:29;;;;;;;0.70;0.40;;;9.10;85.20;;;;;;5079794;28;20401;-78
2021/05/18 01:47:59;;;;;;;0.73;0.50;;;9.20;85.30;;;;;;5098460;28;20032;-77
2021/05/18 01:50:27;;;;;;;0.47;0.40;;;9.30;85.30;;;;;;5078787;28;20399;-78
2021/05/18 01:52:54;;;;;;;0.50;0.50;;;9.30;85.30;;;;;;5097310;28;20036;-78
2021/05/18 01:56:03;;;;;;;1.23;0.63;;;9.30;85.20;;;;;;5062346;28;20074;-78
2021/05/18 01:58:06;;;;;;;1.17;0.57;;;9.30;85.20;;;;;;5083357;28;20046;-78
2021/05/18 02:00:34;;;;;;;0.70;0.50;;;9.50;85.20;;;;;;5066363;28;20036;-79
2021/05/18 02:03:00;;;;;;;0.73;0.50;;;9.40;85.20;;;;;;5102432;28;20083;-77
2021/05/18 02:05:37;;;;;;;1.15;0.60;;;9.40;85.10;;;;;;5083845;28;20032;-78
2021/05/18 02:08:07;;;;;;;0.80;0.63;;;9.50;85.20;;;;;;5067922;28;20040;-78
2021/05/18 02:10:33;;;;;;;0.80;0.43;;;9.40;85.10;;;;;;5066033;28;20040;-78
2021/05/18 02:12:58;;;;;;;0.47;0.43;;;9.50;85.20;;;;;;5099397;28;20119;-78
2021/05/18 02:18:41;;;;;;;0.50;0.47;;;9.50;85.20;;;;;;5099450;28;20144;-77
2021/05/18 02:21:15;;;;;;;0.60;0.47;;;9.50;85.20;;;;;;5084718;28;20051;-78
2021/05/18 02:26:17;;;;;;;0.82;0.50;;;9.60;85.20;;;;;;5065430;28;20452;-78
2021/05/18 02:28:42;;;;;;;0.40;0.40;;;9.60;85.20;;;;;;5078490;28;20123;-79
2021/05/18 02:31:09;;;;;;;0.68;0.60;;;9.60;85.30;;;;;;5081965;28;20020;-78
2021/05/18 02:33:34;;;;;;;0.30;0.30;;;9.60;85.30;;;;;;5115574;28;20024;-78
2021/05/18 02:36:01;;;;;;;0.60;0.50;;;9.70;85.30;;;;;;5096963;28;20512;-78
2021/05/18 02:38:27;;;;;;;1.35;0.60;;;9.70;85.40;;;;;;5094345;28;20049;-79
2021/05/18 02:40:53;;;;;;;0.50;0.50;;;9.70;85.30;;;;;;5097273;28;20044;-78
2021/05/18 02:43:25;;;;;;;0.63;0.50;;;9.70;85.30;;;;;;5097009;28;20047;-78
2021/05/18 02:46:04;;;;;;;0.70;0.68;;;9.70;85.30;;;;;;5095300;28;20102;-78
2021/05/18 02:51:10;;;;;;;0.60;0.52;;;9.80;85.40;;;;;;5109255;28;20099;-78
2021/05/18 02:53:35;;;;;;;1.02;0.60;;;9.80;85.40;;;;;;5069822;28;20107;-78
2021/05/18 02:56:09;;;;;;;0.80;0.63;;;9.90;85.50;;;;;;5085994;28;20485;-78
2021/05/18 02:58:38;;;;;;;0.82;0.50;;;9.80;85.40;;;;;;5085549;28;20502;-78
2021/05/18 03:01:04;;;;;;;1.00;0.80;;;9.80;85.50;;;;;;5104162;28;20043;-78
2021/05/18 03:03:29;;;;;;;1.42;0.68;;;9.90;85.50;;;;;;5070511;28;20036;-78
2021/05/18 03:05:55;;;;;;;0.60;0.60;;;9.90;85.50;;;;;;5084462;28;20042;-78
2021/05/18 03:08:21;;;;;;;0.47;0.47;;;9.90;85.60;;;;;;5051269;28;20044;-78
2021/05/18 03:10:47;;;;;;;0.40;0.40;;;10.10;85.70;;;;;;5100728;28;20062;-78
2021/05/18 03:13:14;;;;;;;0.50;0.47;;;9.90;85.60;;;;;;5081741;28;20040;-78
2021/05/18 03:15:40;;;;;;;0.95;0.57;;;9.90;85.60;;;;;;5103351;28;20108;-78
2021/05/18 03:18:06;;;;;;;1.23;0.80;;;10.00;85.70;;;;;;5102758;28;20055;-78
2021/05/18 03:20:32;;;;;;;1.08;0.55;;;10.00;85.70;;;;;;5102783;28;20039;-78
2021/05/18 03:22:58;;;;;;;0.77;0.40;;;9.90;85.70;;;;;;5086103;28;20036;-78
2021/05/18 03:25:24;;;;;;;0.60;0.60;;;10.00;85.80;;;;;;5050536;28;20040;-78
2021/05/18 03:27:53;;;;;;;0.65;0.60;;;10.00;85.80;;;;;;5067478;28;20528;-78
2021/05/18 03:30:37;;;;;;;0.82;0.60;;;10.00;85.80;;;;;;5086319;28;20559;-78
2021/05/18 03:35:43;;;;;;;0.60;0.50;;;10.10;85.80;;;;;;5086171;28;20047;-78
2021/05/18 03:38:19;;;;;;;0.68;0.60;;;10.10;86.40;;;;;;5063292;28;20097;-78
2021/05/18 03:40:52;;;;;;;1.25;0.65;;;10.10;85.80;;;;;;5081186;28;20040;-78
2021/05/18 04:04:51;;;;;;;2.45;0.80;;;10.20;86.10;;;;;;5078791;28;20040;-78
2021/05/18 04:12:45;;;;;;;0.73;0.52;;;10.10;86.10;;;;;;5092139;28;20052;-78
2021/05/18 04:18:04;;;;;;;1.17;0.73;;;10.20;86.20;;;;;;5082221;28;20048;-78
2021/05/18 04:39:32;;;;;;;1.17;0.70;;;10.30;86.20;;;;;;5064152;28;20124;-78
2021/05/18 04:52:57;;;;;;;1.30;0.90;;;10.50;86.40;;;;;;5062905;28;20056;-78
2021/05/18 05:00:51;;;;;;;1.10;0.90;;;10.50;86.40;;;;;;5085803;28;20095;-79
2021/05/18 05:09:02;;;;;;;0.70;0.70;;;10.50;86.40;;;;;;5061775;28;20086;-77
2021/05/18 05:16:38;;;;;;;;;;;10.50;86.50;;;;;;5075093;28;20450;-76
2021/05/18 05:19:04;;;;;;;0.70;0.68;;;10.50;86.50;;;;;;5073982;28;19951;-76
2021/05/18 05:21:32;;;;;;;0.90;0.68;;;10.50;86.50;;;;;;5039735;28;20413;-76
2021/05/18 05:23:57;;;;;;;2.28;1.15;;;10.60;86.60;;;;;;5092294;28;20044;-76
2021/05/18 05:26:23;;;;;;;1.33;0.90;;;10.70;86.70;;;;;;5072058;28;20063;-77
2021/05/18 05:28:49;;;;;;;2.03;1.13;;;10.50;86.70;;;;;;5074564;28;20059;-76
2021/05/18 05:31:15;;;;;;;0.85;0.65;;;10.60;86.80;;;;;;5056217;28;20076;-77
2021/05/18 05:33:41;;;;;;;1.30;0.90;;;10.60;86.80;;;;;;5072212;28;20036;-77
2021/05/18 05:36:07;;;;;;;1.30;0.80;;;10.60;86.80;;;;;;5076241;28;20043;-77
2021/05/18 05:38:34;;;;;;;1.38;1.10;;;10.60;86.80;;;;;;5095598;28;20043;-77
2021/05/18 05:41:01;;;;;;;1.33;1.10;;;10.70;86.90;;;;;;5096407;28;20044;-76
2021/05/18 05:43:27;;;;;;;2.60;1.45;;;10.70;86.80;;;;;;5096240;28;20067;-76
2021/05/18 05:45:52;;;;;;;1.58;1.20;;;10.70;86.80;;;;;;5079165;28;20090;-77
2021/05/18 05:48:19;;;;;;;1.90;1.30;;;10.70;86.80;;;;;;5043862;28;20039;-76
2021/05/18 05:50:45;;;;;;;1.80;1.27;;;10.80;86.80;;;;;;5077855;28;20554;-76
2021/05/18 05:53:11;;;;;;;1.85;1.15;;;10.80;86.80;;;;;;5060474;28;20094;-77
2021/05/18 05:55:37;;;;;;;2.10;1.40;;;10.90;86.80;;;;;;5078614;28;20054;-76
2021/05/18 05:58:03;;;;;;;1.77;1.23;;;10.90;86.80;;;;;;5077732;28;20051;-77
2021/05/18 06:00:29;;;;;;;1.83;1.35;;;10.90;86.80;;;;;;5095367;28;20048;-76
2021/05/18 06:02:55;;;;;;;2.83;1.50;;;11.00;86.80;;;;;;5080193;28;20055;-76
2021/05/18 06:05:21;;;;;;;1.80;1.23;;;11.10;86.80;;;;;;5078688;28;20048;-77
2021/05/18 06:07:47;;;;;;;1.88;1.42;;;11.10;86.70;;;;;;5078506;28;20036;-77
2021/05/18 06:10:17;;;;;;;2.83;1.73;;;11.10;86.60;;;;;;5107210;28;20040;-77
2021/05/18 06:34:38;;;;;;;3.60;1.70;;;11.50;86.40;;;;;;5064037;28;20082;-75
2021/05/18 06:47:45;;;;;;;3.30;1.77;;;11.50;86.80;;;;;;5077666;28;20039;-73
2021/05/18 06:50:28;;;;;;;2.63;1.42;;;11.50;86.70;;;;;;5059892;28;20397;-75
2021/05/18 06:52:56;;;;;;;2.72;1.63;;;11.60;86.70;;;;;;5076700;28;20542;-75
2021/05/18 06:55:26;;;;;;;1.90;1.42;;;11.70;86.70;;;;;;5094614;28;20397;-75
2021/05/18 06:58:03;;;;;;;1.25;1.10;;;11.90;86.70;;;;;;5059890;28;20131;-75
2021/05/18 07:00:29;;;;;;;1.98;1.50;;;11.90;86.50;;;;;;5076512;28;20044;-75
2021/05/18 07:02:57;;;;;;;1.77;1.10;;;12.00;86.30;;;;;;5077734;28;20032;-76
2021/05/18 07:05:50;;;;;;;2.90;1.58;;;12.00;86.20;;;;;;5084299;28;20489;-76
2021/05/18 07:08:54;;;;;;;1.90;1.30;;;12.00;86.30;;;;;;5079419;28;20059;-77
2021/05/18 07:10:56;;;;;;;2.58;1.60;;;12.00;86.30;;;;;;5078689;28;20451;-76
2021/05/18 07:13:22;;;;;;;2.03;1.40;;;11.90;86.40;;;;;;5076028;28;20123;-76
2021/05/18 07:15:47;;;;;;;1.45;1.20;;;11.90;86.50;;;;;;5076682;28;20059;-76
2021/05/18 07:18:13;;;;;;;1.90;1.40;;;11.90;86.70;;;;;;5042375;28;20055;-75
2021/05/18 07:20:39;;;;;;;2.72;1.60;;;11.80;86.90;;;;;;5059522;28;20499;-78
2021/05/18 07:23:08;;;;;;;2.22;1.40;;;11.70;87.00;;;;;;5096280;28;20040;-79
2021/05/18 07:25:34;;;;;;;1.85;1.42;;;11.60;87.00;;;;;;5060457;28;20032;-78
2021/05/18 07:28:01;;;;;;;2.30;1.40;;;11.40;87.90;;;;;;5075775;28;20131;-77
2021/05/18 07:30:26;;;;;;;2.17;1.40;;;11.30;87.80;;;;;;5059524;28;20036;-77
2021/05/18 07:32:52;;;;;;;1.52;1.10;;;11.10;88.00;;;;;;5075864;28;20119;-77
2021/05/18 07:35:18;;;;;;;0.98;0.80;;;11.10;88.20;;;;;;5075929;28;20097;-76
2021/05/18 07:37:43;;;;;;;1.23;0.80;;;11.00;88.40;;;;;;5093680;28;20533;-75
2021/05/18 07:40:10;;;;;;;0.60;0.60;;;10.90;88.40;;;;;;5075498;28;20543;-76
2021/05/18 07:42:36;;;;;;;0.95;0.63;;;10.90;88.50;;;;;;5075915;28;20036;-76
2021/05/18 07:45:02;;;;;;;0.40;0.40;;;11.00;88.50;;;;;;5058678;28;20090;-78
2021/05/18 07:47:33;;;;;;;1.00;0.52;;;11.00;88.50;;;;;;5068488;28;20056;-76
2021/05/18 07:50:05;;;;;;;0.35;0.35;;;11.00;88.40;;;;;;5082043;28;20068;-76
2021/05/18 08:00:40;;;;;;;0.40;0.40;;;11.20;88.10;;;;;;5080944;28;20048;-78
2021/05/18 08:05:53;;;;;;;0.40;0.40;;;11.30;87.90;;;;;;5099541;28;20135;-79
2021/05/18 08:08:19;;;;;;;1.00;0.65;;;11.30;87.90;;;;;;5092824;28;20032;-79
2021/05/18 08:10:48;;;;;;;0.57;0.50;;;11.30;87.90;;;;;;5108509;28;20112;-79
2021/05/18 08:13:20;;;;;;;0.70;0.68;;;11.30;87.80;;;;;;5060383;28;20557;-78
2021/05/18 08:18:48;;;;;;;0.63;0.60;;;11.50;87.70;;;;;;5078201;28;20043;-78
2021/05/18 08:58:26;;;;;;;1.08;0.90;;;12.80;85.60;;;;;;5098193;28;20032;-75
2021/05/18 09:01:53;;;;;;;1.17;0.90;;;12.80;85.70;;;;;;5076965;28;20467;-76
2021/05/18 09:41:54;;;;;;;;;;;13.50;86.00;;;;;;5076478;28;20079;-78
2021/05/18 10:24:11;;;;;;;0.68;0.40;;;14.00;84.40;;;;;;5078260;28;20043;-78
2021/05/18 10:27:02;;;;;;;0.30;0.30;;;13.80;84.50;;;;;;5065363;28;20451;-80
2021/05/18 10:34:53;;;;;;;0.40;0.30;;;13.50;85.20;;;;;;5094888;28;20134;-78
2021/05/18 10:37:33;;;;;;;0.30;0.30;;;13.50;85.30;;;;;;5077016;28;20394;-78
2021/05/18 10:40:28;;;;;;;0.20;0.20;;;13.50;85.30;;;;;;5077494;28;20040;-79
2021/05/18 10:43:31;;;;;;;0.52;0.30;;;13.60;85.10;;;;;;5082978;28;20270;-77
2021/05/18 10:46:03;;;;;;;0.30;0.30;;;13.60;85.00;;;;;;5074778;28;20044;-78
2021/05/18 10:48:53;;;;;;;0.30;0.30;;;13.80;84.90;;;;;;5084560;28;20051;-77
2021/05/18 10:51:43;;;;;;;0.25;0.25;;;14.00;84.50;;;;;;5088285;28;20047;-78
2021/05/18 10:54:17;;;;;;;0.20;0.20;;;14.10;84.20;;;;;;5084891;28;20032;-79
2021/05/18 10:57:00;;;;;;;0.40;0.40;;;14.20;83.60;;;;;;5081090;28;20569;-77
2021/05/18 10:59:32;;;;;;;0.25;0.25;;;14.30;83.40;;;;;;5080524;28;20051;-77
2021/05/18 11:02:23;;;;;;;0.35;0.35;;;14.60;83.20;;;;;;5098157;28;20598;-79
2021/05/18 11:04:53;;;;;;;0.63;0.55;;;14.90;82.50;;;;;;5062940;28;20044;-77
2021/05/18 11:07:22;;;;;;;0.40;0.40;;;15.20;82.00;;;;;;5078797;28;20040;-78
2021/05/18 11:09:50;;;;;;;0.50;0.32;;;15.30;81.50;;;;;;5080479;28;20047;-77
2021/05/18 11:12:19;;;;;;;0.40;0.40;;;15.30;81.20;;;;;;5077931;28;20048;-79
2021/05/18 11:14:48;;;;;;;0.73;0.40;;;15.60;81.00;;;;;;5077927;28;20048;-81
2021/05/18 11:17:18;;;;;;;0.47;0.40;;;15.70;80.50;;;;;;5096313;28;20043;-81
2021/05/18 11:19:53;;;;;;;0.50;0.50;;;15.60;80.50;;;;;;5079198;28;20073;-81
2021/05/18 11:23:19;;;;;;;0.55;0.50;;;15.40;80.70;;;;;;5094553;28;20043;-80
2021/05/18 11:25:06;;;;;;;0.82;0.70;;;15.30;81.00;;;;;;5079580;28;20174;-78
2021/05/18 11:27:33;;;;;;;0.57;0.57;;;15.20;81.50;;;;;;5094371;28;20081;-79
2021/05/18 11:29:58;;;;;;;0.63;0.40;;;15.10;81.70;;;;;;5064367;28;20048;-80
2021/05/18 11:32:24;;;;;;;1.00;0.70;;;15.00;81.80;;;;;;5060241;28;20040;-78
2021/05/18 11:34:57;;;;;;;1.13;0.70;;;15.00;81.90;;;;;;5077113;28;20071;-79
2021/05/18 11:37:24;;;;;;;0.40;0.40;;;15.00;82.00;;;;;;5059213;28;20042;-77
2021/05/18 11:39:49;;;;;;;1.15;0.70;;;15.00;82.10;;;;;;5077732;28;20119;-77
2021/05/18 11:42:29;;;;;;;0.82;0.50;;;15.20;82.00;;;;;;5044594;28;20086;-77
2021/05/18 11:45:08;;;;;;;1.52;0.47;;;15.50;81.70;;;;;;5094353;28;20032;-77
2021/05/18 11:47:34;;;;;;;0.60;0.50;;;15.70;81.00;;;;;;5077617;28;20056;-77
2021/05/18 11:49:59;;;;;;;0.40;0.40;;;15.80;80.50;;;;;;5078152;28;20047;-80
2021/05/18 11:52:25;;;;;;;0.57;0.50;;;15.90;80.10;;;;;;5061500;28;20044;-81
2021/05/18 11:54:51;;;;;;;0.38;0.38;;;16.10;80.20;;;;;;5078918;28;20048;-79
2021/05/18 11:57:16;;;;;;;0.60;0.43;;;16.00;79.90;;;;;;5099408;28;20048;-79
2021/05/18 11:59:42;;;;;;;0.30;0.30;;;16.00;79.80;;;;;;5097321;28;20130;-81
2021/05/18 12:02:21;;;;;;;0.30;0.30;;;16.10;79.70;;;;;;5078944;28;20040;-80
2021/05/18 12:04:48;;;;;;;0.82;0.50;;;16.00;79.50;;;;;;5076346;28;20093;-78
2021/05/18 12:07:14;;;;;;;0.55;0.30;;;15.90;79.70;;;;;;5077324;28;20044;-80
2021/05/18 12:09:42;;;;;;;0.50;0.40;;;15.60;79.90;;;;;;5077070;28;20036;-79
2021/05/18 12:12:10;;;;;;;0.60;0.60;;;15.60;80.20;;;;;;5059866;28;20047;-80
2021/05/18 12:14:51;;;;;;;0.65;0.65;;;15.30;80.60;;;;;;5095698;28;20044;-79
2021/05/18 12:17:31;;;;;;;0.50;0.40;;;15.10;80.80;;;;;;5094454;28;20095;-78
2021/05/18 12:19:58;;;;;;;0.60;0.60;;;14.90;81.10;;;;;;5081647;28;20047;-77
2021/05/18 12:22:25;;;;;;;0.52;0.50;;;14.90;81.30;;;;;;5093641;28;20078;-76
2021/05/18 12:24:51;;;;;;;0.40;0.40;;;15.00;81.00;;;;;;5093911;28;20044;-76
2021/05/18 12:27:16;;;;;;;0.28;0.28;;;15.10;80.50;;;;;;5058556;28;20111;-75
2021/05/18 12:29:49;;;;;;;0.40;0.40;;;15.20;80.10;;;;;;5074791;28;20044;-76
2021/05/18 12:32:21;;;;;;;0.30;0.30;;;15.30;79.60;;;;;;5075254;28;20044;-75
2021/05/18 12:34:56;;;;;;;0.30;0.30;;;15.30;79.50;;;;;;5075419;28;20139;-75
2021/05/18 12:37:34;;;;;;;0.25;0.25;;;15.40;79.50;;;;;;5074645;28;20048;-76
2021/05/18 12:40:03;;;;;;;0.38;0.25;;;15.40;79.30;;;;;;5102117;28;20044;-75
2021/05/18 12:42:29;;;;;;;0.22;0.22;;;15.30;79.10;;;;;;5113943;28;20022;-76
2021/05/18 12:44:59;;;;;;;0.40;0.40;;;15.30;79.00;;;;;;5086363;28;20040;-80
2021/05/18 12:47:35;;;;;;;0.40;0.40;;;15.50;78.80;;;;;;5076965;28;20473;-78
2021/05/18 12:50:03;;;;;;;0.38;0.38;;;15.50;77.90;;;;;;5057498;28;20072;-78
2021/05/18 12:52:48;;;;;;;0.40;0.40;;;15.60;77.90;;;;;;5092753;28;20048;-78
2021/05/18 12:55:23;;;;;;;0.20;0.20;;;15.70;77.70;;;;;;5057825;28;20492;-77
2021/05/18 12:57:54;;;;;;;0.52;0.43;;;15.70;77.40;;;;;;5059447;28;20041;-80
2021/05/18 13:00:25;;;;;;;0.50;0.45;;;15.80;77.30;;;;;;5041582;28;20044;-77
2021/05/18 13:02:53;;;;;;;0.50;0.50;;;15.90;76.70;;;;;;5093576;28;20040;-79
2021/05/18 13:05:29;;;;;;;0.65;0.65;;;15.90;76.50;;;;;;5075138;28;20502;-78
2021/05/18 13:08:12;;;;;;;1.77;0.55;;;16.00;76.20;;;;;;5059371;28;20043;-79
2021/05/18 13:10:51;;;;;;;0.80;0.55;;;16.10;76.20;;;;;;5095145;28;20040;-79
2021/05/18 13:13:18;;;;;;;0.60;0.60;;;16.20;76.00;;;;;;5093614;28;20036;-76
2021/05/18 13:15:44;;;;;;;0.73;0.45;;;16.30;75.50;;;;;;5075647;28;20024;-79
2021/05/18 13:18:13;;;;;;;0.30;0.30;;;16.30;76.10;;;;;;5075873;28;20044;-78
2021/05/18 13:20:47;;;;;;;0.50;0.50;;;16.40;75.20;;;;;;5064919;28;20103;-78
2021/05/18 13:23:27;;;;;;;0.52;0.50;;;16.60;75.00;;;;;;5090456;28;20070;-79
2021/05/18 13:28:35;;;;;;;0.40;0.40;;;16.50;74.50;;;;;;5104997;28;20045;-78
2021/05/18 13:31:02;;;;;;;0.40;0.40;;;16.40;74.90;;;;;;5039334;28;20055;-76
2021/05/18 13:33:27;;;;;;;0.40;0.40;;;16.20;75.20;;;;;;5055291;28;20604;-77
2021/05/18 13:35:53;;;;;;;0.60;0.60;;;16.30;75.30;;;;;;5057181;28;20070;-77
2021/05/18 13:38:19;;;;;;;1.00;0.60;;;16.20;75.10;;;;;;5091805;28;20123;-78
2021/05/18 13:40:45;;;;;;;0.50;0.50;;;16.20;75.10;;;;;;5081807;28;20044;-78
2021/05/18 13:43:11;;;;;;;0.65;0.50;;;16.20;75.00;;;;;;5092321;28;20370;-81
2021/05/18 13:45:37;;;;;;;0.38;0.38;;;16.30;75.20;;;;;;5074244;28;20067;-79
2021/05/18 13:48:05;;;;;;;0.60;0.60;;;16.20;75.20;;;;;;5074271;28;20101;-80
2021/05/18 13:50:32;;;;;;;0.80;0.70;;;16.20;75.00;;;;;;5074192;28;20490;-80
2021/05/18 13:52:58;;;;;;;0.60;0.60;;;16.20;74.90;;;;;;5057406;28;20046;-81
2021/05/18 13:55:24;;;;;;;0.50;0.50;;;16.20;74.90;;;;;;5077089;28;20079;-77
2021/05/18 13:57:50;;;;;;;0.60;0.60;;;16.20;74.80;;;;;;5080569;28;20044;-77
2021/05/18 14:00:18;;;;;;;0.95;0.85;;;16.20;74.70;;;;;;5062368;28;20040;-78
2021/05/18 14:02:45;;;;;;;0.70;0.68;;;16.20;74.50;;;;;;5095686;28;20039;-78
2021/05/18 14:05:14;;;;;;;0.50;0.50;;;16.10;74.40;;;;;;5060520;28;20505;-78
2021/05/18 14:10:44;;;;;;;0.75;0.60;;;16.20;74.40;;;;;;5057946;28;20048;-76
2021/05/18 14:13:14;;;;;;;0.40;0.40;;;16.20;74.50;;;;;;5089531;28;20102;-82
2021/05/18 14:15:42;;;;;;;0.65;0.50;;;16.20;74.40;;;;;;5086285;28;20032;-81
2021/05/18 14:18:09;;;;;;;0.88;0.80;;;16.20;74.40;;;;;;5061790;28;20040;-78
2021/05/18 14:20:35;;;;;;;0.40;0.40;;;16.30;74.40;;;;;;5071928;28;20140;-77
2021/05/18 14:23:00;;;;;;;0.30;0.30;;;16.30;74.40;;;;;;5096886;28;20490;-78
2021/05/18 14:25:26;;;;;;;0.40;0.30;;;16.30;74.00;;;;;;5080201;28;20079;-80
2021/05/18 14:27:52;;;;;;;1.65;0.50;;;16.30;74.00;;;;;;5098823;28;20035;-77
2021/05/18 14:30:18;;;;;;;1.38;0.43;;;16.30;73.80;;;;;;5069550;28;20394;-78
2021/05/18 14:32:43;;;;;;;0.68;0.40;;;16.30;73.70;;;;;;5092415;28;20044;-80
2021/05/18 14:35:12;;;;;;;0.30;0.30;;;16.30;73.80;;;;;;5107365;28;20150;-80
2021/05/18 14:37:40;;;;;;;0.30;0.30;;;16.30;73.60;;;;;;5102281;28;20062;-76
2021/05/18 14:40:39;;;;;;;1.17;0.50;;;16.30;73.60;;;;;;5103082;28;20370;-79
2021/05/18 14:43:00;;;;;;;0.47;0.30;;;16.30;73.60;;;;;;5103132;28;20046;-76
2021/05/18 14:45:32;;;;;;;0.47;0.47;;;16.40;73.50;;;;;;5096711;28;20131;-77
2021/05/18 14:48:22;;;;;;;0.30;0.30;;;16.40;73.30;;;;;;5088355;28;20104;-77
2021/05/18 14:54:07;;;;;;;0.65;0.52;;;16.40;73.40;;;;;;5086266;28;20040;-76
2021/05/18 14:56:10;;;;;;;0.20;0.20;;;16.20;73.30;;;;;;5089918;28;20044;-76
2021/05/18 14:58:36;;;;;;;0.22;0.22;;;16.20;73.20;;;;;;5087571;28;20039;-78
2021/05/18 15:01:03;;;;;;;1.13;0.40;;;16.10;73.00;;;;;;5083185;28;20036;-77
2021/05/18 15:03:31;;;;;;;0.30;0.30;;;16.10;73.00;;;;;;5101701;28;20043;-77
2021/05/18 15:05:59;;;;;;;0.43;0.30;;;16.10;72.90;;;;;;5085552;28;20099;-77
2021/05/18 15:08:26;;;;;;;0.38;0.38;;;16.00;72.70;;;;;;5086355;28;20132;-76
2021/05/18 15:10:57;;;;;;;0.30;0.30;;;16.10;72.70;;;;;;5068377;28;20032;-78
2021/05/18 15:13:23;;;;;;;0.73;0.30;;;16.10;72.40;;;;;;5072270;28;20040;-77
2021/05/18 15:15:49;;;;;;;0.20;0.20;;;16.00;72.20;;;;;;5085153;28;20043;-76
2021/05/18 15:18:16;;;;;;;0.25;0.20;;;16.10;72.30;;;;;;5066906;28;20055;-77
2021/05/18 15:20:42;;;;;;;0.20;0.20;;;16.20;72.30;;;;;;5083339;28;20040;-77
2021/05/18 15:23:08;;;;;;;0.30;0.30;;;16.20;72.10;;;;;;5099857;28;20575;-76
2021/05/18 15:25:33;;;;;;;0.38;0.38;;;16.30;72.00;;;;;;5067064;28;20127;-76
2021/05/18 15:27:59;;;;;;;0.77;0.30;;;16.40;71.40;;;;;;5084402;28;20595;-75
2021/05/18 15:30:25;;;;;;;0.20;0.20;;;16.50;71.00;;;;;;5094559;28;20046;-75
2021/05/18 15:32:51;;;;;;;0.28;0.28;;;16.50;70.90;;;;;;5084152;28;20047;-78
2021/05/18 15:35:17;;;;;;;0.20;0.20;;;16.60;70.80;;;;;;5089501;28;20098;-76
2021/05/18 15:37:44;;;;;;;0.55;0.35;;;16.50;70.90;;;;;;5082956;28;20498;-76
2021/05/18 15:40:11;;;;;;;0.20;0.20;;;16.40;71.00;;;;;;5064949;28;20557;-75
2021/05/18 15:42:37;;;;;;;0.40;0.25;;;16.40;71.10;;;;;;5082790;28;20064;-75
2021/05/18 15:45:04;;;;;;;0.20;0.20;;;16.30;71.20;;;;;;5082823;28;20036;-76
2021/05/18 15:47:31;;;;;;;0.57;0.30;;;16.20;71.20;;;;;;5101158;28;20051;-75
2021/05/18 15:49:57;;;;;;;0.20;0.20;;;16.10;71.20;;;;;;5088031;28;20055;-76
2021/05/18 15:52:23;;;;;;;0.73;0.20;;;16.20;71.30;;;;;;5069631;28;20064;-75
2021/05/18 15:54:49;;;;;;;0.13;0.13;;;16.30;71.20;;;;;;5081779;28;20040;-75
2021/05/18 15:57:16;;;;;;;0.30;0.30;;;16.30;70.70;;;;;;5098677;28;20043;-75
2021/05/18 15:59:44;;;;;;;0.60;0.40;;;16.40;70.40;;;;;;5099038;28;20512;-75
2021/05/18 16:02:09;;;;;;;0.40;0.25;;;16.40;70.00;;;;;;5082890;28;20047;-76
2021/05/18 16:04:35;;;;;;;0.20;0.20;;;16.50;69.60;;;;;;5064955;28;20047;-76
2021/05/18 16:07:07;;;;;;;0.52;0.20;;;16.60;69.30;;;;;;5085104;28;20040;-76
2021/05/18 16:09:33;;;;;;;0.57;0.20;;;16.60;69.20;;;;;;5085053;28;20071;-78
2021/05/18 16:11:58;;;;;;;0.20;0.17;;;16.60;68.90;;;;;;5099426;28;20066;-77
2021/05/18 16:14:24;;;;;;;0.20;0.20;;;16.70;68.80;;;;;;5068341;28;20051;-76
2021/05/18 16:16:50;;;;;;;0.20;0.20;;;16.70;68.70;;;;;;5094457;28;20051;-76
2021/05/18 16:19:16;;;;;;;0.85;0.30;;;16.70;68.40;;;;;;5075221;28;20063;-76
2021/05/18 16:21:42;;;;;;;0.20;0.20;;;16.70;68.40;;;;;;5074811;28;20477;-77
2021/05/18 16:24:08;;;;;;;0.38;0.20;;;16.70;68.50;;;;;;5074869;28;20041;-77
2021/05/18 16:26:34;;;;;;;0.10;0.10;;;16.80;69.20;;;;;;5058215;28;20040;-76
2021/05/18 16:29:01;;;;;;;0.20;0.20;;;16.90;68.30;;;;;;5093495;28;20040;-77
2021/05/18 16:31:30;;;;;;;0.20;0.20;;;16.90;68.10;;;;;;5058166;28;20497;-77
2021/05/18 16:33:57;;;;;;;0.10;0.10;;;16.90;68.00;;;;;;5075160;28;20040;-77
2021/05/18 16:36:23;;;;;;;0.20;0.20;;;16.90;67.90;;;;;;5058529;28;20514;-76
2021/05/18 16:38:50;;;;;;;0.17;0.17;;;16.90;67.90;;;;;;5073506;28;20090;-77
2021/05/18 16:41:16;;;;;;;0.20;0.20;;;17.00;67.90;;;;;;5074772;28;20133;-77
2021/05/18 16:43:43;;;;;;;0.10;0.10;;;16.90;67.80;;;;;;5041184;28;20099;-78
2021/05/18 16:46:09;;;;;;;0.10;0.10;;;16.90;67.80;;;;;;5074549;28;20051;-78
2021/05/18 16:48:35;;;;;;;0.80;0.20;;;16.90;67.90;;;;;;5074495;28;20041;-77
2021/05/18 16:51:04;;;;;;;0.20;0.20;;;16.90;67.80;;;;;;5058193;28;20415;-77
2021/05/18 16:53:32;;;;;;;0.20;0.20;;;16.80;67.80;;;;;;5074418;28;20036;-77
2021/05/18 16:56:00;;;;;;;0.20;0.20;;;16.90;67.70;;;;;;5074462;28;20048;-78
2021/05/18 16:58:26;;;;;;;0.35;0.10;;;16.80;67.70;;;;;;5057053;28;20121;-78
2021/05/18 17:00:51;;;;;;;0.20;0.20;;;16.70;67.50;;;;;;5092840;28;20066;-76
2021/05/18 17:03:17;;;;;;;0.20;0.20;;;16.70;67.70;;;;;;5092738;28;20094;-77
2021/05/18 17:05:43;;;;;;;0.20;0.20;;;16.60;67.80;;;;;;5092687;28;20047;-78
2021/05/18 17:08:09;;;;;;;0.20;0.20;;;16.50;67.80;;;;;;5057271;28;20035;-78
2021/05/18 17:10:38;;;;;;;0.20;0.20;;;16.50;68.00;;;;;;5073854;28;20044;-78
2021/05/18 17:13:04;;;;;;;0.20;0.20;;;16.50;67.90;;;;;;5055618;28;20115;-78
2021/05/18 17:15:31;;;;;;;0.13;0.13;;;16.40;67.90;;;;;;5092000;28;20490;-77
2021/05/18 17:17:57;;;;;;;0.20;0.15;;;16.50;68.00;;;;;;5072914;28;20047;-78
2021/05/18 17:20:26;;;;;;;0.20;0.20;;;16.50;68.10;;;;;;5072659;28;20056;-78
2021/05/18 17:22:52;;;;;;;0.20;0.20;;;16.30;68.10;;;;;;5073812;28;20074;-78
2021/05/18 17:25:19;;;;;;;0.10;0.10;;;16.20;68.10;;;;;;5057222;28;20036;-79
2021/05/18 17:27:44;;;;;;;0.25;0.20;;;16.20;68.10;;;;;;5074290;28;20036;-79
2021/05/18 17:30:14;;;;;;;0.20;0.20;;;16.10;68.00;;;;;;5074474;28;20043;-78
2021/05/18 17:32:41;;;;;;;0.20;0.20;;;16.00;67.80;;;;;;5077504;28;20123;-78
2021/05/18 17:35:07;;;;;;;0.30;0.20;;;16.00;67.90;;;;;;5092197;28;20442;-78